createdAt,value
2024-03-05T00:01:04.730Z,39.90
2024-03-05T00:03:43.642Z,42.60
2024-03-05T00:06:12.432Z,40.40
2024-03-05T00:08:40.973Z,39.80
2024-03-05T00:11:09.135Z,38.20
2024-03-05T00:13:37.538Z,42.00
2024-03-05T00:16:06.005Z,38.60
2024-03-05T00:18:34.359Z,37.30
2024-03-05T00:21:03.265Z,38.90
2024-03-05T00:23:31.440Z,39.00
2024-03-05T00:25:59.803Z,39.50
2024-03-05T00:28:28.180Z,40.50
2024-03-05T00:30:56.617Z,40.30
2024-03-05T00:33:32.734Z,41.20
2024-03-05T00:36:00.981Z,37.30
2024-03-05T00:38:33.665Z,33.00
2024-03-05T00:41:02.986Z,35.10
2024-03-05T00:43:31.316Z,36.30
2024-03-05T00:46:01.715Z,40.70
2024-03-05T00:48:30.468Z,35.40
2024-03-05T00:50:59.402Z,38.80
2024-03-05T00:53:27.739Z,39.00
2024-03-05T00:55:56.988Z,40.60
2024-03-05T00:58:25.266Z,35.80
2024-03-05T01:00:55.594Z,39.20
2024-03-05T01:03:23.800Z,41.30
2024-03-05T01:05:52.117Z,38.00
2024-03-05T01:08:20.575Z,35.90
2024-03-05T01:10:48.884Z,38.80
2024-03-05T01:13:20.800Z,35.00
2024-03-05T01:15:49.329Z,35.10
2024-03-05T01:18:17.605Z,38.80
2024-03-05T01:20:45.885Z,37.30
2024-03-05T01:23:14.723Z,35.90
2024-03-05T01:25:42.919Z,38.40
2024-03-05T01:28:11.466Z,38.50
2024-03-05T01:30:41.576Z,38.20
2024-03-05T01:33:10.942Z,36.90
2024-03-05T01:35:39.474Z,33.20
2024-03-05T01:38:08.570Z,37.30
2024-03-05T01:40:37.001Z,35.40
2024-03-05T01:43:05.370Z,39.80
2024-03-05T01:45:34.646Z,37.70
2024-03-05T01:48:03.125Z,39.90
2024-03-05T01:50:36.413Z,36.20
2024-03-05T01:53:07.370Z,36.40
2024-03-05T01:55:38.656Z,36.30
2024-03-05T01:58:10.054Z,39.40
2024-03-05T02:00:38.731Z,38.50
2024-03-05T02:03:07.442Z,32.50
2024-03-05T02:05:35.693Z,29.00
2024-03-05T02:08:04.426Z,26.80
2024-03-05T02:10:33.400Z,31.50
2024-03-05T02:13:02.303Z,36.40
2024-03-05T02:15:30.718Z,31.60
2024-03-05T02:17:58.989Z,26.40
2024-03-05T02:20:28.880Z,34.60
2024-03-05T02:22:57.952Z,32.40
2024-03-05T02:25:26.409Z,34.20
2024-03-05T02:27:54.797Z,35.50
2024-03-05T02:30:23.377Z,39.00
2024-03-05T02:32:52.788Z,35.10
2024-03-05T02:35:21.950Z,33.00
2024-03-05T02:37:50.889Z,29.20
2024-03-05T02:40:20.208Z,26.30
2024-03-05T02:42:48.523Z,33.80
2024-03-05T02:45:17.049Z,34.10
2024-03-05T02:47:45.525Z,31.20
2024-03-05T02:50:14.262Z,33.20
2024-03-05T02:52:42.897Z,32.50
2024-03-05T02:55:11.979Z,33.40
2024-03-05T02:57:42.586Z,33.00
2024-03-05T03:00:21.682Z,26.00
2024-03-05T03:05:23.223Z,31.60
2024-03-05T03:07:54.992Z,28.40
2024-03-05T03:10:24.195Z,28.00
2024-03-05T03:12:52.814Z,28.90
2024-03-05T03:15:22.104Z,25.20
2024-03-05T03:17:51.166Z,26.20
2024-03-05T03:20:20.149Z,31.00
2024-03-05T03:22:48.670Z,32.50
2024-03-05T03:25:17.297Z,31.30
2024-03-05T03:27:45.958Z,27.10
2024-03-05T03:30:19.641Z,32.00
2024-03-05T03:32:49.289Z,31.90
2024-03-05T03:35:21.478Z,31.00
2024-03-05T03:37:50.064Z,33.90
2024-03-05T03:40:22.744Z,30.10
2024-03-05T03:42:52.829Z,29.10
2024-03-05T03:45:21.594Z,30.50
2024-03-05T03:47:50.222Z,31.90
2024-03-05T03:50:18.826Z,38.20
2024-03-05T03:52:47.273Z,33.60
2024-03-05T03:55:17.030Z,31.00
2024-03-05T03:57:47.608Z,31.00
2024-03-05T04:00:18.632Z,33.50
2024-03-05T04:02:48.240Z,32.00
2024-03-05T04:07:45.699Z,29.70
2024-03-05T04:10:14.095Z,23.10
2024-03-05T04:12:42.479Z,30.30
2024-03-05T04:15:13.962Z,31.40
2024-03-05T04:17:42.735Z,32.00
2024-03-05T04:20:11.864Z,32.30
2024-03-05T04:22:41.054Z,33.20
2024-03-05T04:25:09.999Z,27.60
2024-03-05T04:27:43.547Z,36.80
2024-03-05T04:30:14.662Z,36.20
2024-03-05T04:32:58.432Z,34.30
2024-03-05T04:35:30.196Z,34.80
2024-03-05T04:37:59.102Z,35.30
2024-03-05T04:40:28.168Z,33.90
2024-03-05T04:42:56.988Z,35.30
2024-03-05T04:45:26.720Z,33.40
2024-03-05T04:47:56.003Z,35.10
2024-03-05T04:50:24.367Z,31.90
2024-03-05T04:52:54.496Z,33.40
2024-03-05T04:55:24.293Z,28.00
2024-03-05T04:57:52.904Z,29.50
2024-03-05T05:00:21.987Z,27.60
2024-03-05T05:02:53.077Z,25.40
2024-03-05T05:05:27.130Z,27.70
2024-03-05T05:07:58.024Z,25.60
2024-03-05T05:10:27.435Z,28.00
2024-03-05T05:12:55.772Z,29.10
2024-03-05T05:15:25.237Z,32.00
2024-03-05T05:17:54.192Z,32.70
2024-03-05T05:20:23.208Z,31.10
2024-03-05T05:22:51.976Z,35.20
2024-03-05T05:25:25.223Z,32.20
2024-03-05T05:27:53.953Z,30.30
2024-03-05T05:30:25.153Z,32.50
2024-03-05T05:32:55.027Z,29.30
2024-03-05T05:35:23.313Z,27.60
2024-03-05T05:37:51.543Z,29.50
2024-03-05T05:40:21.490Z,31.30
2024-03-05T05:42:51.527Z,36.50
2024-03-05T05:45:23.255Z,32.00
2024-03-05T05:47:56.092Z,31.40
2024-03-05T05:50:32.957Z,35.40
2024-03-05T05:53:01.595Z,35.00
2024-03-05T05:55:30.134Z,31.00
2024-03-05T05:57:58.982Z,33.80
2024-03-05T06:00:37.979Z,41.50
2024-03-05T06:05:40.245Z,37.30
2024-03-05T06:08:12.699Z,33.70
2024-03-05T06:10:45.227Z,37.50
2024-03-05T06:13:14.789Z,38.00
2024-03-05T06:15:44.612Z,43.20
2024-03-05T06:18:12.887Z,42.50
2024-03-05T06:20:41.438Z,41.30
2024-03-05T06:23:09.970Z,46.40
2024-03-05T06:25:38.876Z,48.30
2024-03-05T06:28:11.045Z,55.00
2024-03-05T06:30:39.425Z,54.30
2024-03-05T06:33:10.350Z,58.30
2024-03-05T06:35:39.695Z,62.90
2024-03-05T06:38:09.848Z,79.70
2024-03-05T06:40:38.170Z,66.00
2024-03-05T06:43:14.045Z,57.00
2024-03-05T06:45:44.432Z,57.20
2024-03-05T06:48:17.704Z,50.50
2024-03-05T06:50:53.572Z,49.70
2024-03-05T06:53:41.012Z,51.80
2024-03-05T06:56:27.881Z,37.10
2024-03-05T06:58:56.469Z,27.50
2024-03-05T07:03:57.946Z,30.20
2024-03-05T07:06:26.278Z,21.80
2024-03-05T07:08:56.663Z,23.40
2024-03-05T07:11:28.419Z,25.50
2024-03-05T07:13:57.017Z,22.40
2024-03-05T07:16:25.898Z,23.10
2024-03-05T07:18:55.125Z,23.30
2024-03-05T07:21:25.824Z,22.60
2024-03-05T07:23:57.331Z,23.70
2024-03-05T07:26:26.094Z,25.10
2024-03-05T07:28:54.799Z,18.80
2024-03-05T07:33:55.865Z,21.10
2024-03-05T07:36:24.268Z,24.00
2024-03-05T07:38:54.194Z,26.70
2024-03-05T07:41:29.873Z,31.40
2024-03-05T07:44:05.265Z,21.90
2024-03-05T07:46:35.464Z,30.80
2024-03-05T07:49:05.621Z,27.30
2024-03-05T07:51:41.312Z,29.60
2024-03-05T07:54:14.586Z,26.60
2024-03-05T07:56:44.590Z,25.00
2024-03-05T07:59:13.199Z,24.90
2024-03-05T08:01:42.261Z,24.20
2024-03-05T08:04:10.853Z,25.60
2024-03-05T08:06:39.394Z,24.90
2024-03-05T08:09:08.807Z,24.50
2024-03-05T08:11:37.148Z,23.50
2024-03-05T08:16:40.339Z,24.70
2024-03-05T08:19:09.201Z,23.90
2024-03-05T08:21:37.501Z,25.50
2024-03-05T08:24:06.755Z,25.00
2024-03-05T08:26:35.933Z,28.10
2024-03-05T08:29:05.412Z,28.20
2024-03-05T08:31:33.944Z,22.90
2024-03-05T08:34:05.785Z,21.80
2024-03-05T08:36:38.472Z,22.20
2024-03-05T08:39:17.115Z,23.30
2024-03-05T08:41:48.234Z,19.80
2024-03-05T08:44:17.244Z,20.40
2024-03-05T08:49:14.357Z,20.40
2024-03-05T08:51:42.642Z,23.20
2024-03-05T08:54:11.073Z,22.10
2024-03-05T08:56:43.495Z,22.70
2024-03-05T08:59:11.797Z,21.80
2024-03-05T09:01:40.555Z,22.60
2024-03-05T09:04:11.158Z,22.80
2024-03-05T09:06:39.827Z,22.90
2024-03-05T09:14:05.135Z,27.70
2024-03-05T09:16:34.128Z,23.90
2024-03-05T09:19:02.661Z,24.50
2024-03-05T09:21:33.609Z,23.30
2024-03-05T09:24:02.566Z,26.20
2024-03-05T09:26:31.199Z,23.20
2024-03-05T09:28:59.757Z,24.60
2024-03-05T09:31:28.252Z,22.60
2024-03-05T09:33:57.022Z,23.80
2024-03-05T09:36:25.541Z,25.40
2024-03-05T09:38:54.174Z,25.20
2024-03-05T09:41:23.666Z,23.40
2024-03-05T09:43:55.486Z,23.10
2024-03-05T09:46:27.373Z,21.00
2024-03-05T09:49:01.590Z,20.20
2024-03-05T09:51:37.992Z,25.80
2024-03-05T09:54:11.731Z,24.30
2024-03-05T09:56:47.645Z,22.50
2024-03-05T09:59:17.748Z,20.70
2024-03-05T10:01:47.836Z,22.80
2024-03-05T10:04:17.575Z,22.00
2024-03-05T10:06:47.760Z,24.40
2024-03-05T10:09:21.692Z,23.40
2024-03-05T10:11:52.423Z,20.40
2024-03-05T10:14:24.027Z,22.50
2024-03-05T10:17:00.738Z,19.40
2024-03-05T10:19:29.002Z,20.60
2024-03-05T10:22:12.146Z,19.20
2024-03-05T10:24:40.462Z,21.70
2024-03-05T10:27:11.025Z,19.50
2024-03-05T10:29:39.537Z,19.90
2024-03-05T10:32:12.861Z,21.50
2024-03-05T10:34:44.959Z,19.90
2024-03-05T10:37:13.513Z,17.70
2024-03-05T10:39:43.709Z,18.80
2024-03-05T10:42:14.075Z,18.20
2024-03-05T10:44:43.611Z,19.60
2024-03-05T10:47:14.199Z,19.10
2024-03-05T10:49:46.533Z,18.50
2024-03-05T10:52:16.661Z,19.00
2024-03-05T10:54:46.716Z,18.40
2024-03-05T10:57:14.843Z,20.90
2024-03-05T10:59:48.354Z,16.90
2024-03-05T11:02:19.207Z,19.40
2024-03-05T11:04:51.234Z,17.40
2024-03-05T11:07:20.891Z,15.10
2024-03-05T11:09:50.227Z,15.30
2024-03-05T11:12:20.539Z,15.60
2024-03-05T11:14:51.044Z,15.80
2024-03-05T11:17:19.581Z,13.70
2024-03-05T11:19:49.221Z,16.70
2024-03-05T11:22:23.916Z,15.60
2024-03-05T11:25:03.114Z,13.80
2024-03-05T11:27:32.402Z,15.20
2024-03-05T11:30:18.101Z,12.90
2024-03-05T11:32:46.745Z,14.10
2024-03-05T11:35:19.505Z,13.90
2024-03-05T11:37:56.059Z,12.20
2024-03-05T11:40:36.854Z,12.90
2024-03-05T11:43:08.548Z,12.10
2024-03-05T11:45:50.873Z,12.90
2024-03-05T11:48:20.935Z,10.10
2024-03-05T11:50:54.135Z,11.40
2024-03-05T11:53:24.207Z,11.50
2024-03-05T11:55:53.817Z,10.80
2024-03-05T11:58:27.247Z,11.10
2024-03-05T12:01:03.836Z,11.60
2024-03-05T12:03:32.241Z,12.40
2024-03-05T12:06:01.846Z,11.10
2024-03-05T12:08:34.026Z,12.60
2024-03-05T12:11:03.998Z,12.70
2024-03-05T12:13:33.078Z,11.60
2024-03-05T12:16:15.723Z,12.70
2024-03-05T12:18:44.065Z,12.10
2024-03-05T12:21:12.460Z,15.10
2024-03-05T12:23:43.173Z,13.60
2024-03-05T12:26:13.531Z,14.10
2024-03-05T12:28:42.608Z,11.80
2024-03-05T12:31:11.886Z,12.20
2024-03-05T12:33:40.656Z,11.10
2024-03-05T12:36:14.190Z,10.30
2024-03-05T12:38:42.706Z,10.20
2024-03-05T12:41:11.227Z,9.90
2024-03-05T12:43:39.504Z,9.10
2024-03-05T12:46:07.839Z,8.80
2024-03-05T12:48:36.477Z,8.30
2024-03-05T12:53:33.310Z,7.20
2024-03-05T12:56:03.161Z,9.50
2024-03-05T12:58:42.058Z,8.40
2024-03-05T13:01:16.790Z,7.40
2024-03-05T13:03:45.849Z,8.40
2024-03-05T13:06:14.293Z,8.60
2024-03-05T13:08:42.857Z,8.90
2024-03-05T13:11:11.634Z,9.10
2024-03-05T13:13:40.289Z,8.90
2024-03-05T13:16:09.035Z,7.90
2024-03-05T13:18:37.862Z,9.00
2024-03-05T13:21:07.419Z,7.90
2024-03-05T13:23:36.301Z,8.50
2024-03-05T13:28:32.924Z,9.80
2024-03-05T13:31:01.251Z,9.10
2024-03-05T13:33:29.947Z,8.40
2024-03-05T13:35:58.361Z,8.40
2024-03-05T13:38:26.803Z,8.50
2024-03-05T13:40:55.129Z,9.20
2024-03-05T13:43:26.369Z,9.00
2024-03-05T13:45:56.451Z,9.10
2024-03-05T13:48:24.858Z,7.30
2024-03-05T13:50:53.484Z,9.00
2024-03-05T13:53:22.713Z,9.10
2024-03-05T13:58:25.327Z,8.10
2024-03-05T14:00:53.897Z,8.70
2024-03-05T14:03:22.399Z,8.40
2024-03-05T14:05:50.803Z,9.80
2024-03-05T14:08:19.231Z,9.70
2024-03-05T14:10:47.905Z,10.40
2024-03-05T14:13:18.991Z,7.70
2024-03-05T14:15:50.541Z,6.90
2024-03-05T14:18:20.997Z,7.40
2024-03-05T14:20:50.286Z,8.10
2024-03-05T14:23:18.783Z,8.10
2024-03-05T14:25:49.474Z,7.10
2024-03-05T14:28:17.935Z,7.20
2024-03-05T14:30:46.163Z,6.40
2024-03-05T14:33:14.780Z,6.20
2024-03-05T14:38:17.799Z,7.00
2024-03-05T14:40:46.168Z,7.70
2024-03-05T14:43:14.639Z,7.30
2024-03-05T14:45:42.911Z,7.30
2024-03-05T14:48:11.387Z,9.60
2024-03-05T14:50:39.739Z,7.60
2024-03-05T14:53:08.683Z,7.90
2024-03-05T14:55:37.299Z,8.60
2024-03-05T14:58:06.697Z,9.10
2024-03-05T15:00:34.910Z,12.30
2024-03-05T15:03:03.327Z,11.20
2024-03-05T15:05:32.124Z,8.30
2024-03-05T15:08:00.372Z,11.20
2024-03-05T15:10:29.927Z,9.20
2024-03-05T15:12:58.755Z,8.50
2024-03-05T15:15:27.021Z,6.40
2024-03-05T15:17:55.932Z,6.50
2024-03-05T15:22:53.715Z,7.30
2024-03-05T15:25:22.824Z,6.60
2024-03-05T15:30:22.538Z,7.00
2024-03-05T15:32:52.470Z,7.30
2024-03-05T15:35:23.190Z,6.40
2024-03-05T15:37:52.825Z,7.10
2024-03-05T15:40:23.757Z,7.00
2024-03-05T15:42:57.460Z,8.00
2024-03-05T15:45:28.614Z,7.80
2024-03-05T15:47:58.068Z,7.60
2024-03-05T15:50:30.927Z,7.90
2024-03-05T15:53:04.395Z,8.10
2024-03-05T15:55:40.139Z,8.90
2024-03-05T15:58:08.940Z,7.10
2024-03-05T16:00:39.524Z,7.90
2024-03-05T16:03:13.850Z,8.80
2024-03-05T16:05:55.719Z,8.70
2024-03-05T16:08:32.904Z,9.00
2024-03-05T16:11:01.516Z,6.70
2024-03-05T16:13:31.538Z,10.10
2024-03-05T16:16:00.026Z,8.40
2024-03-05T16:18:28.388Z,8.80
2024-03-05T16:21:01.470Z,9.20
2024-03-05T16:23:29.907Z,8.90
2024-03-05T16:25:58.457Z,9.90
2024-03-05T16:28:27.063Z,8.90
2024-03-05T16:30:55.470Z,10.00
2024-03-05T16:33:26.234Z,9.60
2024-03-05T16:35:54.807Z,7.80
2024-03-05T16:38:23.153Z,8.20
2024-03-05T16:40:54.099Z,7.30
2024-03-05T16:43:22.432Z,8.10
2024-03-05T16:45:51.964Z,7.70
2024-03-05T16:48:20.261Z,8.40
2024-03-05T16:50:48.665Z,4.90
2024-03-05T16:53:16.842Z,9.30
2024-03-05T16:55:45.168Z,7.80
2024-03-05T16:58:16.402Z,8.40
2024-03-05T17:00:58.160Z,8.10
2024-03-05T17:03:30.770Z,10.90
2024-03-05T17:06:00.839Z,9.40
2024-03-05T17:08:30.886Z,11.80
2024-03-05T17:11:00.326Z,12.20
2024-03-05T17:13:31.285Z,14.10
2024-03-05T17:16:05.023Z,13.80
2024-03-05T17:18:35.875Z,13.20
2024-03-05T17:21:05.781Z,15.20
2024-03-05T17:23:36.075Z,16.20
2024-03-05T17:26:05.908Z,18.00
2024-03-05T17:28:34.733Z,16.40
2024-03-05T17:31:04.975Z,14.30
2024-03-05T17:33:33.444Z,13.10
2024-03-05T17:36:03.193Z,18.50
2024-03-05T17:38:33.168Z,16.80
2024-03-05T17:41:02.637Z,20.00
2024-03-05T17:43:31.619Z,21.20
2024-03-05T17:46:00.883Z,21.20
2024-03-05T17:48:29.515Z,37.10
2024-03-05T17:51:02.022Z,21.70
2024-03-05T17:53:30.634Z,20.20
2024-03-05T17:55:59.076Z,16.70
2024-03-05T17:58:27.461Z,16.80
2024-03-05T18:00:55.829Z,13.20
2024-03-05T18:03:24.683Z,17.60
2024-03-05T18:05:54.456Z,13.00
2024-03-05T18:08:23.072Z,16.80
2024-03-05T18:10:52.093Z,16.50
2024-03-05T18:13:22.284Z,18.00
2024-03-05T18:15:52.587Z,13.80
2024-03-05T18:18:21.143Z,13.00
2024-03-05T18:20:50.343Z,14.60
2024-03-05T18:23:19.030Z,15.50
2024-03-05T18:25:49.740Z,15.40
2024-03-05T18:28:21.754Z,18.40
2024-03-05T18:30:51.332Z,16.90
2024-03-05T18:33:20.290Z,20.80
2024-03-05T18:35:48.758Z,19.60
2024-03-05T18:38:24.937Z,16.60
2024-03-05T18:41:01.500Z,18.50
2024-03-05T18:43:31.781Z,18.20
2024-03-05T18:46:01.722Z,21.60
2024-03-05T18:48:31.249Z,19.80
2024-03-05T18:51:00.217Z,19.70
2024-03-05T18:53:39.234Z,15.50
2024-03-05T18:56:13.803Z,13.10
2024-03-05T18:58:43.938Z,13.70
2024-03-05T19:01:15.867Z,8.00
2024-03-05T19:03:45.297Z,9.30
2024-03-05T19:06:13.706Z,6.50
2024-03-05T19:08:41.963Z,8.00
2024-03-05T19:11:12.605Z,8.50
2024-03-05T19:13:43.010Z,14.20
2024-03-05T19:16:11.865Z,20.70
2024-03-05T19:18:40.464Z,18.20
2024-03-05T19:21:09.219Z,22.90
2024-03-05T19:23:38.180Z,21.90
2024-03-05T19:26:06.724Z,22.60
2024-03-05T19:28:37.749Z,19.20
2024-03-05T19:31:08.667Z,19.70
2024-03-05T19:33:36.837Z,18.10
2024-03-05T19:36:06.860Z,19.80
2024-03-05T19:38:35.300Z,19.20
2024-03-05T19:41:04.117Z,18.10
2024-03-05T19:43:37.362Z,17.00
2024-03-05T19:46:08.856Z,24.40
2024-03-05T19:48:37.738Z,21.40
2024-03-05T19:51:07.866Z,22.10
2024-03-05T19:53:36.224Z,21.40
2024-03-05T19:56:05.093Z,21.80
2024-03-05T19:58:33.417Z,20.20
2024-03-05T20:01:02.025Z,18.60
2024-03-05T20:03:30.426Z,19.00
2024-03-05T20:05:59.118Z,21.40
2024-03-05T20:08:29.921Z,21.70
2024-03-05T20:10:58.797Z,21.40
2024-03-05T20:13:27.217Z,21.90
2024-03-05T20:15:59.136Z,22.40
2024-03-05T20:18:28.753Z,22.00
2024-03-05T20:20:58.058Z,18.30
2024-03-05T20:23:27.646Z,19.80
2024-03-05T20:25:57.084Z,19.70
2024-03-05T20:28:25.533Z,19.20
2024-03-05T20:30:56.239Z,21.10
2024-03-05T20:33:25.143Z,20.60
2024-03-05T20:35:53.738Z,17.90
2024-03-05T20:38:25.646Z,20.50
2024-03-05T20:40:53.845Z,22.50
2024-03-05T20:43:22.119Z,20.20
2024-03-05T20:45:50.281Z,20.70
2024-03-05T20:48:18.458Z,20.00
2024-03-05T20:50:47.859Z,18.50
2024-03-05T20:53:16.954Z,17.70
2024-03-05T20:55:45.555Z,17.80
2024-03-05T20:58:14.324Z,19.50
2024-03-05T21:00:44.323Z,13.90
2024-03-05T21:03:12.811Z,17.00
2024-03-05T21:05:43.758Z,18.80
2024-03-05T21:08:12.671Z,17.10
2024-03-05T21:10:42.369Z,17.00
2024-03-05T21:13:10.531Z,15.40
2024-03-05T21:15:38.788Z,15.00
2024-03-05T21:18:11.080Z,15.70
2024-03-05T21:20:39.535Z,15.60
2024-03-05T21:23:10.115Z,15.00
2024-03-05T21:25:50.157Z,17.60
2024-03-05T21:28:26.973Z,15.80
2024-03-05T21:30:56.104Z,19.50
2024-03-05T21:33:24.582Z,18.90
2024-03-05T21:35:53.022Z,20.10
2024-03-05T21:38:21.286Z,14.70
2024-03-05T21:40:49.654Z,15.90
2024-03-05T21:43:18.725Z,14.30
2024-03-05T21:45:46.989Z,15.20
2024-03-05T21:48:15.617Z,14.60
2024-03-05T21:50:43.896Z,17.30
2024-03-05T21:53:12.340Z,15.80
2024-03-05T21:55:41.148Z,17.80
2024-03-05T21:58:09.533Z,16.90
2024-03-05T22:00:38.028Z,15.90
2024-03-05T22:03:06.326Z,16.70
2024-03-05T22:05:34.598Z,18.60
2024-03-05T22:08:04.567Z,18.10
2024-03-05T22:10:33.015Z,14.70
2024-03-05T22:13:01.689Z,17.90
2024-03-05T22:15:29.960Z,18.70
2024-03-05T22:17:58.623Z,15.10
2024-03-05T22:20:27.035Z,17.00
2024-03-05T22:22:55.254Z,19.90
2024-03-05T22:25:23.502Z,16.20
2024-03-05T22:27:52.045Z,17.30
2024-03-05T22:30:20.756Z,19.70
2024-03-05T22:32:50.048Z,18.20
2024-03-05T22:35:19.545Z,14.70
2024-03-05T22:37:50.230Z,16.10
2024-03-05T22:40:23.236Z,16.10
2024-03-05T22:42:51.914Z,18.10
2024-03-05T22:45:23.094Z,17.10
2024-03-05T22:47:51.355Z,14.30
2024-03-05T22:50:19.711Z,14.60
2024-03-05T22:52:48.086Z,18.10
2024-03-05T22:55:16.404Z,16.20
2024-03-05T22:57:44.678Z,13.90
2024-03-05T23:00:33.589Z,13.80
2024-03-05T23:03:04.402Z,14.40
2024-03-05T23:05:33.436Z,13.90
2024-03-05T23:08:02.374Z,14.10
2024-03-05T23:10:31.641Z,11.80
2024-03-05T23:13:00.364Z,11.50
2024-03-05T23:15:28.804Z,11.50
2024-03-05T23:17:57.162Z,16.80
2024-03-05T23:20:25.438Z,14.50
2024-03-05T23:22:54.081Z,13.20
2024-03-05T23:25:23.258Z,14.90
2024-03-05T23:30:20.018Z,12.80
2024-03-05T23:32:51.038Z,12.90
2024-03-05T23:35:19.708Z,10.60
2024-03-05T23:37:48.151Z,12.90
2024-03-05T23:40:17.408Z,13.90
2024-03-05T23:45:15.199Z,13.20
2024-03-05T23:47:44.060Z,11.90
2024-03-05T23:50:13.906Z,14.50
2024-03-05T23:52:42.561Z,15.20
2024-03-05T23:55:10.767Z,14.40
2024-03-05T23:57:39.063Z,15.60
